sensor_id;sensor_type;location;lat;lon;timestamp;temperature;humidity
21169;DHT22;10742;51.816;8.662;2024-03-08T00:02:48;7.40;89.20
21169;DHT22;10742;51.816;8.662;2024-03-08T00:06:12;7.40;89.20
21169;DHT22;10742;51.816;8.662;2024-03-08T00:09:33;7.40;89.20
21169;DHT22;10742;51.816;8.662;2024-03-08T00:12:55;7.30;89.20
21169;DHT22;10742;51.816;8.662;2024-03-08T00:16:17;7.30;89.30
21169;DHT22;10742;51.816;8.662;2024-03-08T00:19:40;7.30;90.00
21169;DHT22;10742;51.816;8.662;2024-03-08T00:23:02;7.20;89.30
21169;DHT22;10742;51.816;8.662;2024-03-08T00:26:23;7.20;89.50
21169;DHT22;10742;51.816;8.662;2024-03-08T00:29:45;7.20;89.60
21169;DHT22;10742;51.816;8.662;2024-03-08T00:33:08;7.20;89.60
21169;DHT22;10742;51.816;8.662;2024-03-08T00:36:29;7.20;89.70
21169;DHT22;10742;51.816;8.662;2024-03-08T00:39:51;7.10;89.80
21169;DHT22;10742;51.816;8.662;2024-03-08T00:43:13;7.10;89.80
21169;DHT22;10742;51.816;8.662;2024-03-08T00:46:34;7.10;90.00
21169;DHT22;10742;51.816;8.662;2024-03-08T00:49:55;7.00;90.00
21169;DHT22;10742;51.816;8.662;2024-03-08T00:53:18;7.10;90.30
21169;DHT22;10742;51.816;8.662;2024-03-08T00:56:39;7.00;90.00
21169;DHT22;10742;51.816;8.662;2024-03-08T01:00:03;7.00;90.00
21169;DHT22;10742;51.816;8.662;2024-03-08T01:03:24;6.90;90.00
21169;DHT22;10742;51.816;8.662;2024-03-08T01:06:45;6.90;90.00
21169;DHT22;10742;51.816;8.662;2024-03-08T01:10:08;6.90;90.00
21169;DHT22;10742;51.816;8.662;2024-03-08T01:13:32;6.90;90.10
21169;DHT22;10742;51.816;8.662;2024-03-08T01:16:53;6.90;90.10
21169;DHT22;10742;51.816;8.662;2024-03-08T01:20:15;6.90;90.10
21169;DHT22;10742;51.816;8.662;2024-03-08T01:23:36;6.90;90.20
21169;DHT22;10742;51.816;8.662;2024-03-08T01:26:58;6.80;90.20
21169;DHT22;10742;51.816;8.662;2024-03-08T01:30:19;6.90;90.20
21169;DHT22;10742;51.816;8.662;2024-03-08T01:33:40;6.80;90.20
21169;DHT22;10742;51.816;8.662;2024-03-08T01:37:02;6.80;90.20
21169;DHT22;10742;51.816;8.662;2024-03-08T01:40:23;6.80;90.20
21169;DHT22;10742;51.816;8.662;2024-03-08T01:43:44;6.80;90.20
21169;DHT22;10742;51.816;8.662;2024-03-08T01:47:06;6.80;90.30
21169;DHT22;10742;51.816;8.662;2024-03-08T01:50:28;6.80;90.30
21169;DHT22;10742;51.816;8.662;2024-03-08T01:53:49;6.80;90.20
21169;DHT22;10742;51.816;8.662;2024-03-08T01:57:10;6.80;90.20
21169;DHT22;10742;51.816;8.662;2024-03-08T02:00:33;6.80;90.20
21169;DHT22;10742;51.816;8.662;2024-03-08T02:03:56;6.80;90.20
21169;DHT22;10742;51.816;8.662;2024-03-08T02:07:17;6.80;90.20
21169;DHT22;10742;51.816;8.662;2024-03-08T02:10:41;6.80;90.20
21169;DHT22;10742;51.816;8.662;2024-03-08T02:14:03;6.80;90.20
21169;DHT22;10742;51.816;8.662;2024-03-08T02:17:27;6.70;90.20
21169;DHT22;10742;51.816;8.662;2024-03-08T02:20:59;6.80;90.20
21169;DHT22;10742;51.816;8.662;2024-03-08T02:24:21;6.70;90.20
21169;DHT22;10742;51.816;8.662;2024-03-08T02:27:42;6.70;90.20
21169;DHT22;10742;51.816;8.662;2024-03-08T02:31:04;6.70;90.20
21169;DHT22;10742;51.816;8.662;2024-03-08T02:34:29;6.70;90.20
21169;DHT22;10742;51.816;8.662;2024-03-08T02:37:53;6.70;90.10
21169;DHT22;10742;51.816;8.662;2024-03-08T02:41:14;6.70;90.20
21169;DHT22;10742;51.816;8.662;2024-03-08T02:44:35;6.70;90.20
21169;DHT22;10742;51.816;8.662;2024-03-08T02:47:57;6.60;90.10
21169;DHT22;10742;51.816;8.662;2024-03-08T02:51:18;6.60;90.10
21169;DHT22;10742;51.816;8.662;2024-03-08T02:54:41;6.60;90.10
21169;DHT22;10742;51.816;8.662;2024-03-08T02:58:04;6.60;90.20
21169;DHT22;10742;51.816;8.662;2024-03-08T03:01:26;6.50;90.20
21169;DHT22;10742;51.816;8.662;2024-03-08T03:04:49;6.50;90.20
21169;DHT22;10742;51.816;8.662;2024-03-08T03:08:10;6.50;90.20
21169;DHT22;10742;51.816;8.662;2024-03-08T03:11:32;6.40;90.20
21169;DHT22;10742;51.816;8.662;2024-03-08T03:14:56;6.40;90.30
21169;DHT22;10742;51.816;8.662;2024-03-08T03:18:18;6.40;90.30
21169;DHT22;10742;51.816;8.662;2024-03-08T03:21:43;6.40;90.30
21169;DHT22;10742;51.816;8.662;2024-03-08T03:25:05;6.40;90.40
21169;DHT22;10742;51.816;8.662;2024-03-08T03:28:28;6.30;90.30
21169;DHT22;10742;51.816;8.662;2024-03-08T03:31:50;6.30;90.40
21169;DHT22;10742;51.816;8.662;2024-03-08T03:35:11;6.30;90.40
21169;DHT22;10742;51.816;8.662;2024-03-08T03:38:33;6.30;90.40
21169;DHT22;10742;51.816;8.662;2024-03-08T03:41:55;6.30;90.40
21169;DHT22;10742;51.816;8.662;2024-03-08T03:45:17;6.30;90.40
21169;DHT22;10742;51.816;8.662;2024-03-08T03:48:40;6.30;90.40
21169;DHT22;10742;51.816;8.662;2024-03-08T03:52:04;6.30;90.40
21169;DHT22;10742;51.816;8.662;2024-03-08T03:55:26;6.30;90.40
21169;DHT22;10742;51.816;8.662;2024-03-08T03:58:48;6.20;90.40
21169;DHT22;10742;51.816;8.662;2024-03-08T04:02:11;6.20;90.50
21169;DHT22;10742;51.816;8.662;2024-03-08T04:05:33;6.20;90.50
21169;DHT22;10742;51.816;8.662;2024-03-08T04:08:54;6.20;90.50
21169;DHT22;10742;51.816;8.662;2024-03-08T04:12:16;6.20;90.50
21169;DHT22;10742;51.816;8.662;2024-03-08T04:15:38;6.20;90.50
21169;DHT22;10742;51.816;8.662;2024-03-08T04:19:01;6.10;90.50
21169;DHT22;10742;51.816;8.662;2024-03-08T04:22:25;6.10;90.60
21169;DHT22;10742;51.816;8.662;2024-03-08T04:25:46;6.10;90.60
21169;DHT22;10742;51.816;8.662;2024-03-08T04:29:08;6.10;90.60
21169;DHT22;10742;51.816;8.662;2024-03-08T04:32:30;6.00;90.60
21169;DHT22;10742;51.816;8.662;2024-03-08T04:35:52;6.00;90.60
21169;DHT22;10742;51.816;8.662;2024-03-08T04:39:13;6.00;90.70
21169;DHT22;10742;51.816;8.662;2024-03-08T04:42:36;6.00;90.70
21169;DHT22;10742;51.816;8.662;2024-03-08T04:45:58;6.00;90.80
21169;DHT22;10742;51.816;8.662;2024-03-08T04:49:19;6.00;90.80
21169;DHT22;10742;51.816;8.662;2024-03-08T04:52:42;5.90;90.80
21169;DHT22;10742;51.816;8.662;2024-03-08T04:56:04;5.90;90.80
21169;DHT22;10742;51.816;8.662;2024-03-08T04:59:27;5.90;90.80
21169;DHT22;10742;51.816;8.662;2024-03-08T05:02:49;6.00;90.80
21169;DHT22;10742;51.816;8.662;2024-03-08T05:06:14;6.00;90.80
21169;DHT22;10742;51.816;8.662;2024-03-08T05:09:35;6.00;90.70
21169;DHT22;10742;51.816;8.662;2024-03-08T05:12:57;5.90;90.70
21169;DHT22;10742;51.816;8.662;2024-03-08T05:16:18;5.90;91.10
21169;DHT22;10742;51.816;8.662;2024-03-08T05:19:42;5.90;90.70
21169;DHT22;10742;51.816;8.662;2024-03-08T05:23:04;5.90;90.70
21169;DHT22;10742;51.816;8.662;2024-03-08T05:26:26;5.90;90.70
21169;DHT22;10742;51.816;8.662;2024-03-08T05:29:48;5.90;90.80
21169;DHT22;10742;51.816;8.662;2024-03-08T05:33:09;5.90;90.80
21169;DHT22;10742;51.816;8.662;2024-03-08T05:36:36;5.90;90.80
21169;DHT22;10742;51.816;8.662;2024-03-08T05:39:58;5.90;90.80
21169;DHT22;10742;51.816;8.662;2024-03-08T05:43:19;5.90;90.70
21169;DHT22;10742;51.816;8.662;2024-03-08T05:46:41;5.90;90.70
21169;DHT22;10742;51.816;8.662;2024-03-08T05:50:03;5.80;90.70
21169;DHT22;10742;51.816;8.662;2024-03-08T05:53:25;5.80;90.70
21169;DHT22;10742;51.816;8.662;2024-03-08T05:56:47;5.80;90.70
21169;DHT22;10742;51.816;8.662;2024-03-08T06:00:10;5.80;90.70
21169;DHT22;10742;51.816;8.662;2024-03-08T06:03:35;5.80;90.80
21169;DHT22;10742;51.816;8.662;2024-03-08T06:06:59;5.80;90.80
21169;DHT22;10742;51.816;8.662;2024-03-08T06:10:22;5.80;90.70
21169;DHT22;10742;51.816;8.662;2024-03-08T06:13:45;5.80;90.80
21169;DHT22;10742;51.816;8.662;2024-03-08T06:17:07;5.80;90.80
21169;DHT22;10742;51.816;8.662;2024-03-08T06:20:29;5.70;90.80
21169;DHT22;10742;51.816;8.662;2024-03-08T06:23:50;5.70;91.00
21169;DHT22;10742;51.816;8.662;2024-03-08T06:27:13;5.70;90.80
21169;DHT22;10742;51.816;8.662;2024-03-08T06:30:36;5.70;90.80
21169;DHT22;10742;51.816;8.662;2024-03-08T06:33:58;5.70;90.80
21169;DHT22;10742;51.816;8.662;2024-03-08T06:37:21;5.70;90.90
21169;DHT22;10742;51.816;8.662;2024-03-08T06:40:43;5.70;90.90
21169;DHT22;10742;51.816;8.662;2024-03-08T06:44:05;5.70;91.00
21169;DHT22;10742;51.816;8.662;2024-03-08T06:47:32;5.70;91.10
21169;DHT22;10742;51.816;8.662;2024-03-08T06:50:58;5.70;91.10
21169;DHT22;10742;51.816;8.662;2024-03-08T06:54:21;5.70;91.10
21169;DHT22;10742;51.816;8.662;2024-03-08T06:57:43;5.80;91.30
21169;DHT22;10742;51.816;8.662;2024-03-08T07:01:06;5.80;91.40
21169;DHT22;10742;51.816;8.662;2024-03-08T07:04:30;5.90;91.60
21169;DHT22;10742;51.816;8.662;2024-03-08T07:07:54;6.00;91.70
21169;DHT22;10742;51.816;8.662;2024-03-08T07:11:15;6.00;91.70
21169;DHT22;10742;51.816;8.662;2024-03-08T07:14:39;6.10;91.80
21169;DHT22;10742;51.816;8.662;2024-03-08T07:18:06;6.30;91.90
21169;DHT22;10742;51.816;8.662;2024-03-08T07:21:31;6.40;92.00
21169;DHT22;10742;51.816;8.662;2024-03-08T07:24:53;6.50;92.00
21169;DHT22;10742;51.816;8.662;2024-03-08T07:28:37;6.70;92.00
21169;DHT22;10742;51.816;8.662;2024-03-08T07:31:59;6.80;91.90
21169;DHT22;10742;51.816;8.662;2024-03-08T07:35:39;6.90;91.80
21169;DHT22;10742;51.816;8.662;2024-03-08T07:39:02;7.10;91.70
21169;DHT22;10742;51.816;8.662;2024-03-08T07:42:25;7.20;91.50
21169;DHT22;10742;51.816;8.662;2024-03-08T07:45:46;7.30;91.50
21169;DHT22;10742;51.816;8.662;2024-03-08T07:49:08;7.40;91.50
21169;DHT22;10742;51.816;8.662;2024-03-08T07:52:32;7.50;91.40
21169;DHT22;10742;51.816;8.662;2024-03-08T07:55:55;7.60;91.70
21169;DHT22;10742;51.816;8.662;2024-03-08T07:59:16;7.70;91.30
21169;DHT22;10742;51.816;8.662;2024-03-08T08:02:37;7.80;91.30
21169;DHT22;10742;51.816;8.662;2024-03-08T08:05:59;7.90;91.20
21169;DHT22;10742;51.816;8.662;2024-03-08T08:09:20;8.00;91.10
21169;DHT22;10742;51.816;8.662;2024-03-08T08:12:49;8.10;91.20
21169;DHT22;10742;51.816;8.662;2024-03-08T08:16:10;8.30;91.20
21169;DHT22;10742;51.816;8.662;2024-03-08T08:19:33;8.40;91.10
21169;DHT22;10742;51.816;8.662;2024-03-08T08:22:54;8.60;91.10
21169;DHT22;10742;51.816;8.662;2024-03-08T08:26:16;8.70;91.10
21169;DHT22;10742;51.816;8.662;2024-03-08T08:29:38;8.80;90.80
21169;DHT22;10742;51.816;8.662;2024-03-08T08:32:59;8.90;90.70
21169;DHT22;10742;51.816;8.662;2024-03-08T08:36:22;9.00;90.50
21169;DHT22;10742;51.816;8.662;2024-03-08T08:39:43;9.10;90.80
21169;DHT22;10742;51.816;8.662;2024-03-08T08:43:05;9.20;90.40
21169;DHT22;10742;51.816;8.662;2024-03-08T08:46:27;9.30;90.30
21169;DHT22;10742;51.816;8.662;2024-03-08T08:49:49;9.40;90.30
21169;DHT22;10742;51.816;8.662;2024-03-08T08:53:12;9.50;90.20
21169;DHT22;10742;51.816;8.662;2024-03-08T08:56:36;9.60;90.30
21169;DHT22;10742;51.816;8.662;2024-03-08T08:59:59;9.70;90.30
21169;DHT22;10742;51.816;8.662;2024-03-08T09:03:23;9.90;90.40
21169;DHT22;10742;51.816;8.662;2024-03-08T09:06:47;10.10;90.30
21169;DHT22;10742;51.816;8.662;2024-03-08T09:10:09;10.20;89.80
21169;DHT22;10742;51.816;8.662;2024-03-08T09:13:34;10.40;89.80
21169;DHT22;10742;51.816;8.662;2024-03-08T09:16:56;10.50;89.40
21169;DHT22;10742;51.816;8.662;2024-03-08T09:20:17;10.60;89.30
21169;DHT22;10742;51.816;8.662;2024-03-08T09:23:38;10.80;89.00
21169;DHT22;10742;51.816;8.662;2024-03-08T09:27:01;10.90;88.40
21169;DHT22;10742;51.816;8.662;2024-03-08T09:30:23;10.90;87.20
21169;DHT22;10742;51.816;8.662;2024-03-08T09:33:45;11.00;87.30
21169;DHT22;10742;51.816;8.662;2024-03-08T09:37:09;11.10;87.60
21169;DHT22;10742;51.816;8.662;2024-03-08T09:40:31;11.10;87.60
21169;DHT22;10742;51.816;8.662;2024-03-08T09:43:54;11.20;88.50
21169;DHT22;10742;51.816;8.662;2024-03-08T09:47:18;11.40;87.30
21169;DHT22;10742;51.816;8.662;2024-03-08T09:50:41;11.40;86.40
21169;DHT22;10742;51.816;8.662;2024-03-08T09:54:03;11.50;86.00
21169;DHT22;10742;51.816;8.662;2024-03-08T09:57:29;11.60;86.00
21169;DHT22;10742;51.816;8.662;2024-03-08T10:00:50;11.70;86.00
21169;DHT22;10742;51.816;8.662;2024-03-08T10:04:13;11.80;85.80
21169;DHT22;10742;51.816;8.662;2024-03-08T10:07:35;11.90;85.80
21169;DHT22;10742;51.816;8.662;2024-03-08T10:10:57;12.00;85.90
21169;DHT22;10742;51.816;8.662;2024-03-08T10:14:19;12.10;84.70
21169;DHT22;10742;51.816;8.662;2024-03-08T10:17:40;12.20;84.20
21169;DHT22;10742;51.816;8.662;2024-03-08T10:21:06;12.20;84.30
21169;DHT22;10742;51.816;8.662;2024-03-08T10:24:28;12.30;84.30
21169;DHT22;10742;51.816;8.662;2024-03-08T10:27:50;12.40;84.30
21169;DHT22;10742;51.816;8.662;2024-03-08T10:31:12;12.50;83.80
21169;DHT22;10742;51.816;8.662;2024-03-08T10:34:35;12.60;84.00
21169;DHT22;10742;51.816;8.662;2024-03-08T10:37:56;12.70;83.70
21169;DHT22;10742;51.816;8.662;2024-03-08T10:41:24;12.80;83.00
21169;DHT22;10742;51.816;8.662;2024-03-08T10:45:06;12.90;83.10
21169;DHT22;10742;51.816;8.662;2024-03-08T10:48:39;13.10;81.90
21169;DHT22;10742;51.816;8.662;2024-03-08T10:52:05;13.10;81.30
21169;DHT22;10742;51.816;8.662;2024-03-08T10:55:30;13.30;81.70
21169;DHT22;10742;51.816;8.662;2024-03-08T10:58:54;13.30;81.10
21169;DHT22;10742;51.816;8.662;2024-03-08T11:02:17;13.40;80.70
21169;DHT22;10742;51.816;8.662;2024-03-08T11:05:45;13.50;80.30
21169;DHT22;10742;51.816;8.662;2024-03-08T11:12:51;13.50;78.20
21169;DHT22;10742;51.816;8.662;2024-03-08T11:19:50;13.60;77.20
21169;DHT22;10742;51.816;8.662;2024-03-08T11:23:14;13.60;78.20
21169;DHT22;10742;51.816;8.662;2024-03-08T11:26:45;13.60;77.80
21169;DHT22;10742;51.816;8.662;2024-03-08T11:30:09;13.70;77.80
21169;DHT22;10742;51.816;8.662;2024-03-08T11:33:46;13.70;77.70
21169;DHT22;10742;51.816;8.662;2024-03-08T11:37:13;13.80;77.40
21169;DHT22;10742;51.816;8.662;2024-03-08T11:40:36;13.80;76.30
21169;DHT22;10742;51.816;8.662;2024-03-08T11:44:05;13.80;76.80
21169;DHT22;10742;51.816;8.662;2024-03-08T11:47:28;13.90;75.60
21169;DHT22;10742;51.816;8.662;2024-03-08T11:51:03;13.90;76.60
21169;DHT22;10742;51.816;8.662;2024-03-08T11:54:27;13.90;75.80
21169;DHT22;10742;51.816;8.662;2024-03-08T11:57:50;14.00;76.20
21169;DHT22;10742;51.816;8.662;2024-03-08T12:01:14;14.10;75.90
21169;DHT22;10742;51.816;8.662;2024-03-08T12:04:40;14.10;75.90
21169;DHT22;10742;51.816;8.662;2024-03-08T12:08:03;14.20;75.70
21169;DHT22;10742;51.816;8.662;2024-03-08T12:11:32;14.20;75.70
21169;DHT22;10742;51.816;8.662;2024-03-08T12:14:57;14.30;75.00
21169;DHT22;10742;51.816;8.662;2024-03-08T12:18:19;14.30;75.10
21169;DHT22;10742;51.816;8.662;2024-03-08T12:21:42;14.40;73.90
21169;DHT22;10742;51.816;8.662;2024-03-08T12:25:11;14.40;73.50
21169;DHT22;10742;51.816;8.662;2024-03-08T12:28:33;14.40;73.30
21169;DHT22;10742;51.816;8.662;2024-03-08T12:32:03;14.30;73.30
21169;DHT22;10742;51.816;8.662;2024-03-08T12:35:28;14.30;71.50
21169;DHT22;10742;51.816;8.662;2024-03-08T12:38:49;14.20;71.80
21169;DHT22;10742;51.816;8.662;2024-03-08T12:42:11;14.10;72.40
21169;DHT22;10742;51.816;8.662;2024-03-08T12:45:32;14.10;72.50
21169;DHT22;10742;51.816;8.662;2024-03-08T12:48:54;14.10;72.60
21169;DHT22;10742;51.816;8.662;2024-03-08T12:52:15;14.00;72.60
21169;DHT22;10742;51.816;8.662;2024-03-08T12:55:39;14.00;72.90
21169;DHT22;10742;51.816;8.662;2024-03-08T12:59:01;14.00;73.30
21169;DHT22;10742;51.816;8.662;2024-03-08T13:02:24;14.00;73.10
21169;DHT22;10742;51.816;8.662;2024-03-08T13:05:45;14.00;73.20
21169;DHT22;10742;51.816;8.662;2024-03-08T13:09:06;14.10;73.50
21169;DHT22;10742;51.816;8.662;2024-03-08T13:12:27;14.10;73.50
21169;DHT22;10742;51.816;8.662;2024-03-08T13:15:48;14.10;73.30
21169;DHT22;10742;51.816;8.662;2024-03-08T13:19:10;14.20;73.50
21169;DHT22;10742;51.816;8.662;2024-03-08T13:22:34;14.20;73.30
21169;DHT22;10742;51.816;8.662;2024-03-08T13:25:56;14.20;73.60
21169;DHT22;10742;51.816;8.662;2024-03-08T13:29:18;14.30;73.30
21169;DHT22;10742;51.816;8.662;2024-03-08T13:32:40;14.30;73.60
21169;DHT22;10742;51.816;8.662;2024-03-08T13:36:07;14.30;73.80
21169;DHT22;10742;51.816;8.662;2024-03-08T13:39:36;14.40;73.70
21169;DHT22;10742;51.816;8.662;2024-03-08T13:43:01;14.40;74.10
21169;DHT22;10742;51.816;8.662;2024-03-08T13:46:22;14.50;73.80
21169;DHT22;10742;51.816;8.662;2024-03-08T13:49:45;14.50;73.30
21169;DHT22;10742;51.816;8.662;2024-03-08T13:53:07;14.50;73.40
21169;DHT22;10742;51.816;8.662;2024-03-08T13:56:32;14.50;72.10
21169;DHT22;10742;51.816;8.662;2024-03-08T13:59:54;14.50;72.60
21169;DHT22;10742;51.816;8.662;2024-03-08T14:03:16;14.50;72.30
21169;DHT22;10742;51.816;8.662;2024-03-08T14:06:38;14.40;72.40
21169;DHT22;10742;51.816;8.662;2024-03-08T14:10:00;14.40;72.40
21169;DHT22;10742;51.816;8.662;2024-03-08T14:13:23;14.30;71.70
21169;DHT22;10742;51.816;8.662;2024-03-08T14:16:48;14.30;71.90
21169;DHT22;10742;51.816;8.662;2024-03-08T14:20:10;14.30;72.20
21169;DHT22;10742;51.816;8.662;2024-03-08T14:23:33;14.30;72.40
21169;DHT22;10742;51.816;8.662;2024-03-08T14:26:55;14.20;72.10
21169;DHT22;10742;51.816;8.662;2024-03-08T14:30:16;14.20;72.30
21169;DHT22;10742;51.816;8.662;2024-03-08T14:33:52;14.20;72.10
21169;DHT22;10742;51.816;8.662;2024-03-08T14:37:14;14.10;71.80
21169;DHT22;10742;51.816;8.662;2024-03-08T14:40:37;14.10;72.60
21169;DHT22;10742;51.816;8.662;2024-03-08T14:43:58;14.00;72.60
21169;DHT22;10742;51.816;8.662;2024-03-08T14:47:20;14.00;72.50
21169;DHT22;10742;51.816;8.662;2024-03-08T14:50:43;14.00;72.40
21169;DHT22;10742;51.816;8.662;2024-03-08T14:54:05;14.00;72.30
21169;DHT22;10742;51.816;8.662;2024-03-08T14:57:31;14.00;72.40
21169;DHT22;10742;51.816;8.662;2024-03-08T15:00:54;14.00;72.40
21169;DHT22;10742;51.816;8.662;2024-03-08T15:04:17;14.00;72.30
21169;DHT22;10742;51.816;8.662;2024-03-08T15:07:40;14.00;72.90
21169;DHT22;10742;51.816;8.662;2024-03-08T15:11:01;14.10;72.70
21169;DHT22;10742;51.816;8.662;2024-03-08T15:14:22;14.10;72.40
21169;DHT22;10742;51.816;8.662;2024-03-08T15:17:45;14.10;72.30
21169;DHT22;10742;51.816;8.662;2024-03-08T15:21:08;14.00;72.40
21169;DHT22;10742;51.816;8.662;2024-03-08T15:24:29;14.00;72.00
21169;DHT22;10742;51.816;8.662;2024-03-08T15:27:50;14.00;71.70
21169;DHT22;10742;51.816;8.662;2024-03-08T15:31:11;13.90;71.90
21169;DHT22;10742;51.816;8.662;2024-03-08T15:34:32;13.90;71.70
21169;DHT22;10742;51.816;8.662;2024-03-08T15:37:58;13.90;72.70
21169;DHT22;10742;51.816;8.662;2024-03-08T15:41:21;13.80;72.60
21169;DHT22;10742;51.816;8.662;2024-03-08T15:44:42;13.80;72.70
21169;DHT22;10742;51.816;8.662;2024-03-08T15:48:04;13.80;72.80
21169;DHT22;10742;51.816;8.662;2024-03-08T15:51:26;13.80;73.00
21169;DHT22;10742;51.816;8.662;2024-03-08T15:54:48;13.70;72.40
21169;DHT22;10742;51.816;8.662;2024-03-08T15:58:09;13.70;72.40
21169;DHT22;10742;51.816;8.662;2024-03-08T16:01:32;13.70;72.80
21169;DHT22;10742;51.816;8.662;2024-03-08T16:04:55;13.70;72.60
21169;DHT22;10742;51.816;8.662;2024-03-08T16:08:17;13.60;72.10
21169;DHT22;10742;51.816;8.662;2024-03-08T16:11:41;13.60;72.50
21169;DHT22;10742;51.816;8.662;2024-03-08T16:15:03;13.60;73.20
21169;DHT22;10742;51.816;8.662;2024-03-08T16:18:26;13.60;73.30
21169;DHT22;10742;51.816;8.662;2024-03-08T16:21:47;13.50;73.40
21169;DHT22;10742;51.816;8.662;2024-03-08T16:25:09;13.50;73.20
21169;DHT22;10742;51.816;8.662;2024-03-08T16:28:33;13.50;73.20
21169;DHT22;10742;51.816;8.662;2024-03-08T16:32:00;13.50;73.20
21169;DHT22;10742;51.816;8.662;2024-03-08T16:35:21;13.50;73.20
21169;DHT22;10742;51.816;8.662;2024-03-08T16:38:43;13.50;73.10
21169;DHT22;10742;51.816;8.662;2024-03-08T16:42:07;13.50;73.50
21169;DHT22;10742;51.816;8.662;2024-03-08T16:45:28;13.50;73.60
21169;DHT22;10742;51.816;8.662;2024-03-08T16:48:50;13.40;73.20
21169;DHT22;10742;51.816;8.662;2024-03-08T16:52:11;13.40;73.40
21169;DHT22;10742;51.816;8.662;2024-03-08T16:55:36;13.30;73.80
21169;DHT22;10742;51.816;8.662;2024-03-08T16:58:57;13.30;73.80
21169;DHT22;10742;51.816;8.662;2024-03-08T17:02:18;13.20;73.90
21169;DHT22;10742;51.816;8.662;2024-03-08T17:05:40;13.10;73.80
21169;DHT22;10742;51.816;8.662;2024-03-08T17:09:06;13.10;74.00
21169;DHT22;10742;51.816;8.662;2024-03-08T17:12:34;13.00;74.10
21169;DHT22;10742;51.816;8.662;2024-03-08T17:15:55;12.90;74.50
21169;DHT22;10742;51.816;8.662;2024-03-08T17:19:17;12.90;74.70
21169;DHT22;10742;51.816;8.662;2024-03-08T17:22:41;12.80;75.00
21169;DHT22;10742;51.816;8.662;2024-03-08T17:26:02;12.70;75.20
21169;DHT22;10742;51.816;8.662;2024-03-08T17:29:26;12.60;75.30
21169;DHT22;10742;51.816;8.662;2024-03-08T17:32:55;12.60;75.50
21169;DHT22;10742;51.816;8.662;2024-03-08T17:36:18;12.50;75.70
21169;DHT22;10742;51.816;8.662;2024-03-08T17:39:40;12.40;75.90
21169;DHT22;10742;51.816;8.662;2024-03-08T17:43:03;12.30;75.90
21169;DHT22;10742;51.816;8.662;2024-03-08T17:46:35;12.30;76.20
21169;DHT22;10742;51.816;8.662;2024-03-08T17:49:59;12.20;76.30
21169;DHT22;10742;51.816;8.662;2024-03-08T17:53:21;12.10;76.50
21169;DHT22;10742;51.816;8.662;2024-03-08T17:56:44;12.10;76.60
21169;DHT22;10742;51.816;8.662;2024-03-08T18:00:10;12.00;76.80
21169;DHT22;10742;51.816;8.662;2024-03-08T18:03:39;12.00;77.20
21169;DHT22;10742;51.816;8.662;2024-03-08T18:07:01;11.90;77.20
21169;DHT22;10742;51.816;8.662;2024-03-08T18:10:23;11.90;78.20
21169;DHT22;10742;51.816;8.662;2024-03-08T18:13:45;11.90;77.50
21169;DHT22;10742;51.816;8.662;2024-03-08T18:17:07;11.90;77.60
21169;DHT22;10742;51.816;8.662;2024-03-08T18:20:34;11.70;77.70
21169;DHT22;10742;51.816;8.662;2024-03-08T18:24:05;11.70;77.90
21169;DHT22;10742;51.816;8.662;2024-03-08T18:27:27;11.70;78.00
21169;DHT22;10742;51.816;8.662;2024-03-08T18:30:49;11.60;78.00
21169;DHT22;10742;51.816;8.662;2024-03-08T18:34:12;11.60;78.10
21169;DHT22;10742;51.816;8.662;2024-03-08T18:37:33;11.50;78.20
21169;DHT22;10742;51.816;8.662;2024-03-08T18:40:55;11.50;78.30
21169;DHT22;10742;51.816;8.662;2024-03-08T18:44:16;11.50;78.40
21169;DHT22;10742;51.816;8.662;2024-03-08T18:47:50;11.50;78.60
21169;DHT22;10742;51.816;8.662;2024-03-08T18:51:12;11.50;78.80
21169;DHT22;10742;51.816;8.662;2024-03-08T18:54:37;11.50;78.70
21169;DHT22;10742;51.816;8.662;2024-03-08T18:57:59;11.40;78.80
21169;DHT22;10742;51.816;8.662;2024-03-08T19:01:22;11.40;78.90
21169;DHT22;10742;51.816;8.662;2024-03-08T19:04:48;11.40;79.00
21169;DHT22;10742;51.816;8.662;2024-03-08T19:08:11;11.30;79.20
21169;DHT22;10742;51.816;8.662;2024-03-08T19:11:38;11.40;79.30
21169;DHT22;10742;51.816;8.662;2024-03-08T19:15:01;11.30;79.30
21169;DHT22;10742;51.816;8.662;2024-03-08T19:18:29;11.30;79.40
21169;DHT22;10742;51.816;8.662;2024-03-08T19:21:53;11.30;79.50
21169;DHT22;10742;51.816;8.662;2024-03-08T19:25:17;11.30;79.60
21169;DHT22;10742;51.816;8.662;2024-03-08T19:28:38;11.20;79.70
21169;DHT22;10742;51.816;8.662;2024-03-08T19:32:01;11.20;79.80
21169;DHT22;10742;51.816;8.662;2024-03-08T19:35:23;11.20;80.00
21169;DHT22;10742;51.816;8.662;2024-03-08T19:38:45;11.20;80.10
21169;DHT22;10742;51.816;8.662;2024-03-08T19:42:07;11.10;80.10
21169;DHT22;10742;51.816;8.662;2024-03-08T19:45:30;11.10;80.20
21169;DHT22;10742;51.816;8.662;2024-03-08T19:48:55;11.10;80.50
21169;DHT22;10742;51.816;8.662;2024-03-08T19:52:17;11.10;80.50
21169;DHT22;10742;51.816;8.662;2024-03-08T19:55:42;11.00;80.60
21169;DHT22;10742;51.816;8.662;2024-03-08T19:59:08;11.00;80.70
21169;DHT22;10742;51.816;8.662;2024-03-08T20:02:30;11.00;80.70
21169;DHT22;10742;51.816;8.662;2024-03-08T20:05:53;11.00;81.00
21169;DHT22;10742;51.816;8.662;2024-03-08T20:09:15;10.90;81.00
21169;DHT22;10742;51.816;8.662;2024-03-08T20:12:40;10.90;81.20
21169;DHT22;10742;51.816;8.662;2024-03-08T20:16:07;10.80;81.50
21169;DHT22;10742;51.816;8.662;2024-03-08T20:19:33;10.80;81.50
21169;DHT22;10742;51.816;8.662;2024-03-08T20:22:54;10.80;81.70
21169;DHT22;10742;51.816;8.662;2024-03-08T20:26:16;10.80;81.70
21169;DHT22;10742;51.816;8.662;2024-03-08T20:29:38;10.80;81.80
21169;DHT22;10742;51.816;8.662;2024-03-08T20:33:01;10.80;81.90
21169;DHT22;10742;51.816;8.662;2024-03-08T20:36:24;10.80;82.00
21169;DHT22;10742;51.816;8.662;2024-03-08T20:39:47;10.70;82.10
21169;DHT22;10742;51.816;8.662;2024-03-08T20:43:10;10.70;82.10
21169;DHT22;10742;51.816;8.662;2024-03-08T20:46:32;10.70;82.20
21169;DHT22;10742;51.816;8.662;2024-03-08T20:49:53;10.70;82.30
21169;DHT22;10742;51.816;8.662;2024-03-08T20:53:15;10.70;82.40
21169;DHT22;10742;51.816;8.662;2024-03-08T20:56:36;10.60;82.40
21169;DHT22;10742;51.816;8.662;2024-03-08T20:59:58;10.60;82.50
21169;DHT22;10742;51.816;8.662;2024-03-08T21:03:21;10.60;82.50
21169;DHT22;10742;51.816;8.662;2024-03-08T21:06:44;10.60;82.60
21169;DHT22;10742;51.816;8.662;2024-03-08T21:10:06;10.60;82.70
21169;DHT22;10742;51.816;8.662;2024-03-08T21:13:31;10.50;82.70
21169;DHT22;10742;51.816;8.662;2024-03-08T21:16:53;10.50;82.70
21169;DHT22;10742;51.816;8.662;2024-03-08T21:20:14;10.50;82.90
21169;DHT22;10742;51.816;8.662;2024-03-08T21:23:38;10.50;83.00
21169;DHT22;10742;51.816;8.662;2024-03-08T21:27:02;10.40;83.00
21169;DHT22;10742;51.816;8.662;2024-03-08T21:30:23;10.40;83.10
21169;DHT22;10742;51.816;8.662;2024-03-08T21:33:44;10.40;83.10
21169;DHT22;10742;51.816;8.662;2024-03-08T21:37:05;10.40;83.30
21169;DHT22;10742;51.816;8.662;2024-03-08T21:40:27;10.40;83.40